sensor_id;sensor_type;location;lat;lon;timestamp;P1;durP1;ratioP1;P2;durP2;ratioP2
5058;SDS011;2548;52.050;11.036;2023-09-08T00:01:05;8.43;;;7.63;;
5058;SDS011;2548;52.050;11.036;2023-09-08T00:03:34;7.27;;;6.43;;
5058;SDS011;2548;52.050;11.036;2023-09-08T00:06:01;9.03;;;6.90;;
5058;SDS011;2548;52.050;11.036;2023-09-08T00:08:30;7.70;;;6.90;;
5058;SDS011;2548;52.050;11.036;2023-09-08T00:10:57;15.60;;;7.83;;
5058;SDS011;2548;52.050;11.036;2023-09-08T00:13:25;7.37;;;6.60;;
5058;SDS011;2548;52.050;11.036;2023-09-08T00:15:52;9.60;;;8.00;;
5058;SDS011;2548;52.050;11.036;2023-09-08T00:18:19;8.60;;;7.70;;
5058;SDS011;2548;52.050;11.036;2023-09-08T00:20:48;9.00;;;7.00;;
5058;SDS011;2548;52.050;11.036;2023-09-08T00:23:15;7.97;;;6.43;;
5058;SDS011;2548;52.050;11.036;2023-09-08T00:25:43;8.18;;;7.40;;
5058;SDS011;2548;52.050;11.036;2023-09-08T00:28:10;12.37;;;7.20;;
5058;SDS011;2548;52.050;11.036;2023-09-08T00:30:38;8.30;;;7.17;;
5058;SDS011;2548;52.050;11.036;2023-09-08T00:33:05;7.40;;;6.67;;
5058;SDS011;2548;52.050;11.036;2023-09-08T00:35:34;9.43;;;7.37;;
5058;SDS011;2548;52.050;11.036;2023-09-08T00:38:03;12.43;;;7.53;;
5058;SDS011;2548;52.050;11.036;2023-09-08T00:40:31;10.03;;;7.73;;
5058;SDS011;2548;52.050;11.036;2023-09-08T00:42:59;9.00;;;7.10;;
5058;SDS011;2548;52.050;11.036;2023-09-08T00:45:26;8.20;;;7.37;;
5058;SDS011;2548;52.050;11.036;2023-09-08T00:47:56;9.97;;;7.67;;
5058;SDS011;2548;52.050;11.036;2023-09-08T00:50:23;15.10;;;8.80;;
5058;SDS011;2548;52.050;11.036;2023-09-08T00:52:51;9.23;;;7.40;;
5058;SDS011;2548;52.050;11.036;2023-09-08T00:55:20;8.20;;;7.40;;
5058;SDS011;2548;52.050;11.036;2023-09-08T00:57:47;7.60;;;6.90;;
5058;SDS011;2548;52.050;11.036;2023-09-08T01:00:15;14.63;;;6.87;;
5058;SDS011;2548;52.050;11.036;2023-09-08T01:02:42;8.13;;;7.33;;
5058;SDS011;2548;52.050;11.036;2023-09-08T01:05:10;9.30;;;7.50;;
5058;SDS011;2548;52.050;11.036;2023-09-08T01:07:40;7.70;;;6.97;;
5058;SDS011;2548;52.050;11.036;2023-09-08T01:10:08;12.83;;;7.90;;
5058;SDS011;2548;52.050;11.036;2023-09-08T01:12:38;8.57;;;7.40;;
5058;SDS011;2548;52.050;11.036;2023-09-08T01:15:06;8.67;;;7.53;;
5058;SDS011;2548;52.050;11.036;2023-09-08T01:17:34;12.03;;;8.20;;
5058;SDS011;2548;52.050;11.036;2023-09-08T01:20:04;8.87;;;7.93;;
5058;SDS011;2548;52.050;11.036;2023-09-08T01:25:31;8.60;;;7.80;;
5058;SDS011;2548;52.050;11.036;2023-09-08T01:28:00;8.60;;;7.50;;
5058;SDS011;2548;52.050;11.036;2023-09-08T01:30:30;8.20;;;7.40;;
5058;SDS011;2548;52.050;11.036;2023-09-08T01:32:59;12.23;;;8.90;;
5058;SDS011;2548;52.050;11.036;2023-09-08T01:35:27;10.60;;;8.53;;
5058;SDS011;2548;52.050;11.036;2023-09-08T01:37:55;9.10;;;8.20;;
5058;SDS011;2548;52.050;11.036;2023-09-08T01:40:22;13.43;;;9.20;;
5058;SDS011;2548;52.050;11.036;2023-09-08T01:42:51;16.03;;;9.53;;
5058;SDS011;2548;52.050;11.036;2023-09-08T01:45:19;9.10;;;8.27;;
5058;SDS011;2548;52.050;11.036;2023-09-08T01:47:46;9.50;;;8.50;;
5058;SDS011;2548;52.050;11.036;2023-09-08T01:50:14;12.00;;;10.13;;
5058;SDS011;2548;52.050;11.036;2023-09-08T01:52:47;10.27;;;9.20;;
5058;SDS011;2548;52.050;11.036;2023-09-08T01:55:14;14.83;;;8.40;;
5058;SDS011;2548;52.050;11.036;2023-09-08T01:57:42;15.30;;;9.20;;
5058;SDS011;2548;52.050;11.036;2023-09-08T02:00:12;12.23;;;8.20;;
5058;SDS011;2548;52.050;11.036;2023-09-08T02:02:40;15.13;;;9.80;;
5058;SDS011;2548;52.050;11.036;2023-09-08T02:05:08;16.90;;;9.27;;
5058;SDS011;2548;52.050;11.036;2023-09-08T02:07:35;14.50;;;9.20;;
5058;SDS011;2548;52.050;11.036;2023-09-08T02:10:03;12.90;;;9.87;;
5058;SDS011;2548;52.050;11.036;2023-09-08T02:12:31;14.73;;;9.30;;
5058;SDS011;2548;52.050;11.036;2023-09-08T02:14:58;9.60;;;8.60;;
5058;SDS011;2548;52.050;11.036;2023-09-08T02:17:28;9.87;;;8.70;;
5058;SDS011;2548;52.050;11.036;2023-09-08T02:19:56;10.57;;;9.33;;
5058;SDS011;2548;52.050;11.036;2023-09-08T02:22:23;15.03;;;9.20;;
5058;SDS011;2548;52.050;11.036;2023-09-08T02:24:51;10.50;;;9.20;;
5058;SDS011;2548;52.050;11.036;2023-09-08T02:27:19;21.60;;;10.30;;
5058;SDS011;2548;52.050;11.036;2023-09-08T02:29:50;10.37;;;9.20;;
5058;SDS011;2548;52.050;11.036;2023-09-08T02:32:17;12.50;;;9.13;;
5058;SDS011;2548;52.050;11.036;2023-09-08T02:34:46;11.20;;;10.03;;
5058;SDS011;2548;52.050;11.036;2023-09-08T02:37:15;14.87;;;9.77;;
5058;SDS011;2548;52.050;11.036;2023-09-08T02:39:44;15.33;;;10.60;;
5058;SDS011;2548;52.050;11.036;2023-09-08T02:42:12;18.13;;;9.57;;
5058;SDS011;2548;52.050;11.036;2023-09-08T02:44:39;16.20;;;10.13;;
5058;SDS011;2548;52.050;11.036;2023-09-08T02:47:07;17.90;;;10.03;;
5058;SDS011;2548;52.050;11.036;2023-09-08T02:49:36;10.77;;;9.67;;
5058;SDS011;2548;52.050;11.036;2023-09-08T02:52:05;11.90;;;9.23;;
5058;SDS011;2548;52.050;11.036;2023-09-08T02:54:34;10.40;;;9.37;;
5058;SDS011;2548;52.050;11.036;2023-09-08T02:57:02;10.90;;;9.10;;
5058;SDS011;2548;52.050;11.036;2023-09-08T02:59:30;10.30;;;9.30;;
5058;SDS011;2548;52.050;11.036;2023-09-08T03:01:57;11.73;;;9.40;;
5058;SDS011;2548;52.050;11.036;2023-09-08T03:04:26;15.43;;;10.03;;
5058;SDS011;2548;52.050;11.036;2023-09-08T03:06:53;12.70;;;10.23;;
5058;SDS011;2548;52.050;11.036;2023-09-08T03:09:23;10.40;;;9.30;;
5058;SDS011;2548;52.050;11.036;2023-09-08T03:11:50;11.30;;;9.80;;
5058;SDS011;2548;52.050;11.036;2023-09-08T03:14:17;10.10;;;9.03;;
5058;SDS011;2548;52.050;11.036;2023-09-08T03:16:45;19.23;;;10.40;;
5058;SDS011;2548;52.050;11.036;2023-09-08T03:19:12;13.00;;;10.07;;
5058;SDS011;2548;52.050;11.036;2023-09-08T03:21:40;16.30;;;9.40;;
5058;SDS011;2548;52.050;11.036;2023-09-08T03:24:07;10.53;;;9.50;;
5058;SDS011;2548;52.050;11.036;2023-09-08T03:26:36;12.83;;;10.53;;
5058;SDS011;2548;52.050;11.036;2023-09-08T03:29:05;11.17;;;9.97;;
5058;SDS011;2548;52.050;11.036;2023-09-08T03:31:33;11.67;;;10.13;;
5058;SDS011;2548;52.050;11.036;2023-09-08T03:34:00;12.27;;;10.30;;
5058;SDS011;2548;52.050;11.036;2023-09-08T03:36:28;13.13;;;11.30;;
5058;SDS011;2548;52.050;11.036;2023-09-08T03:38:57;16.60;;;11.30;;
5058;SDS011;2548;52.050;11.036;2023-09-08T03:41:24;14.63;;;10.07;;
5058;SDS011;2548;52.050;11.036;2023-09-08T03:43:53;12.07;;;10.55;;
5058;SDS011;2548;52.050;11.036;2023-09-08T03:46:21;12.93;;;10.20;;
5058;SDS011;2548;52.050;11.036;2023-09-08T03:48:50;14.93;;;11.48;;
5058;SDS011;2548;52.050;11.036;2023-09-08T03:51:18;23.27;;;10.83;;
5058;SDS011;2548;52.050;11.036;2023-09-08T03:53:45;16.23;;;10.90;;
5058;SDS011;2548;52.050;11.036;2023-09-08T03:56:13;21.77;;;11.57;;
5058;SDS011;2548;52.050;11.036;2023-09-08T03:58:40;13.53;;;10.93;;
5058;SDS011;2548;52.050;11.036;2023-09-08T04:01:10;13.77;;;12.03;;
5058;SDS011;2548;52.050;11.036;2023-09-08T04:03:37;13.60;;;10.23;;
5058;SDS011;2548;52.050;11.036;2023-09-08T04:06:05;13.93;;;11.80;;
5058;SDS011;2548;52.050;11.036;2023-09-08T04:08:32;16.43;;;10.93;;
5058;SDS011;2548;52.050;11.036;2023-09-08T04:11:00;13.82;;;11.38;;
5058;SDS011;2548;52.050;11.036;2023-09-08T04:13:27;13.10;;;11.83;;
5058;SDS011;2548;52.050;11.036;2023-09-08T04:15:54;14.90;;;12.13;;
5058;SDS011;2548;52.050;11.036;2023-09-08T04:18:23;15.50;;;11.10;;
5058;SDS011;2548;52.050;11.036;2023-09-08T04:20:51;13.40;;;11.93;;
5058;SDS011;2548;52.050;11.036;2023-09-08T04:23:18;13.07;;;11.65;;
5058;SDS011;2548;52.050;11.036;2023-09-08T04:25:46;14.57;;;12.30;;
5058;SDS011;2548;52.050;11.036;2023-09-08T04:28:13;17.10;;;12.23;;
5058;SDS011;2548;52.050;11.036;2023-09-08T04:30:41;14.60;;;12.10;;
5058;SDS011;2548;52.050;11.036;2023-09-08T04:33:08;13.90;;;12.47;;
5058;SDS011;2548;52.050;11.036;2023-09-08T04:35:38;18.10;;;11.77;;
5058;SDS011;2548;52.050;11.036;2023-09-08T04:38:05;12.60;;;11.30;;
5058;SDS011;2548;52.050;11.036;2023-09-08T04:40:33;19.80;;;13.07;;
5058;SDS011;2548;52.050;11.036;2023-09-08T04:43:01;13.48;;;12.10;;
5058;SDS011;2548;52.050;11.036;2023-09-08T04:45:28;16.30;;;12.60;;
5058;SDS011;2548;52.050;11.036;2023-09-08T04:47:56;20.57;;;11.90;;
5058;SDS011;2548;52.050;11.036;2023-09-08T04:50:23;20.33;;;13.30;;
5058;SDS011;2548;52.050;11.036;2023-09-08T04:52:52;14.38;;;12.30;;
5058;SDS011;2548;52.050;11.036;2023-09-08T04:55:20;17.27;;;13.87;;
5058;SDS011;2548;52.050;11.036;2023-09-08T04:57:47;16.55;;;12.52;;
5058;SDS011;2548;52.050;11.036;2023-09-08T05:00:15;26.92;;;12.70;;
5058;SDS011;2548;52.050;11.036;2023-09-08T05:02:44;17.13;;;12.90;;
5058;SDS011;2548;52.050;11.036;2023-09-08T05:05:11;16.13;;;12.10;;
5058;SDS011;2548;52.050;11.036;2023-09-08T05:07:39;18.00;;;13.80;;
5058;SDS011;2548;52.050;11.036;2023-09-08T05:10:08;17.00;;;14.25;;
5058;SDS011;2548;52.050;11.036;2023-09-08T05:12:38;20.87;;;15.20;;
5058;SDS011;2548;52.050;11.036;2023-09-08T05:15:05;30.70;;;14.10;;
5058;SDS011;2548;52.050;11.036;2023-09-08T05:17:41;18.65;;;12.80;;
5058;SDS011;2548;52.050;11.036;2023-09-08T05:20:09;24.67;;;13.90;;
5058;SDS011;2548;52.050;11.036;2023-09-08T05:22:36;20.10;;;13.37;;
5058;SDS011;2548;52.050;11.036;2023-09-08T05:25:06;25.27;;;14.25;;
5058;SDS011;2548;52.050;11.036;2023-09-08T05:27:35;17.50;;;13.83;;
5058;SDS011;2548;52.050;11.036;2023-09-08T05:30:03;13.87;;;12.50;;
5058;SDS011;2548;52.050;11.036;2023-09-08T05:32:33;21.27;;;13.75;;
5058;SDS011;2548;52.050;11.036;2023-09-08T05:35:01;17.77;;;13.47;;
5058;SDS011;2548;52.050;11.036;2023-09-08T05:37:28;15.90;;;14.20;;
5058;SDS011;2548;52.050;11.036;2023-09-08T05:39:56;18.93;;;13.87;;
5058;SDS011;2548;52.050;11.036;2023-09-08T05:42:24;16.95;;;13.63;;
5058;SDS011;2548;52.050;11.036;2023-09-08T05:44:53;17.03;;;12.27;;
5058;SDS011;2548;52.050;11.036;2023-09-08T05:47:21;25.07;;;14.13;;
5058;SDS011;2548;52.050;11.036;2023-09-08T05:49:48;17.73;;;12.80;;
5058;SDS011;2548;52.050;11.036;2023-09-08T05:52:16;22.25;;;14.00;;
5058;SDS011;2548;52.050;11.036;2023-09-08T05:54:45;17.67;;;13.43;;
5058;SDS011;2548;52.050;11.036;2023-09-08T05:57:12;18.50;;;14.88;;
5058;SDS011;2548;52.050;11.036;2023-09-08T05:59:40;18.80;;;14.27;;
5058;SDS011;2548;52.050;11.036;2023-09-08T06:02:09;30.10;;;14.50;;
5058;SDS011;2548;52.050;11.036;2023-09-08T06:04:36;15.90;;;13.33;;
5058;SDS011;2548;52.050;11.036;2023-09-08T06:07:04;19.60;;;14.60;;
5058;SDS011;2548;52.050;11.036;2023-09-08T06:09:32;16.80;;;13.13;;
5058;SDS011;2548;52.050;11.036;2023-09-08T06:12:00;19.45;;;14.60;;
5058;SDS011;2548;52.050;11.036;2023-09-08T06:14:29;17.50;;;14.05;;
5058;SDS011;2548;52.050;11.036;2023-09-08T06:16:57;19.23;;;13.35;;
5058;SDS011;2548;52.050;11.036;2023-09-08T06:19:25;20.23;;;14.00;;
5058;SDS011;2548;52.050;11.036;2023-09-08T06:21:53;21.73;;;13.87;;
5058;SDS011;2548;52.050;11.036;2023-09-08T06:24:21;23.00;;;13.17;;
5058;SDS011;2548;52.050;11.036;2023-09-08T06:26:50;25.73;;;14.57;;
5058;SDS011;2548;52.050;11.036;2023-09-08T06:29:18;16.80;;;13.63;;
5058;SDS011;2548;52.050;11.036;2023-09-08T06:31:46;18.80;;;15.47;;
5058;SDS011;2548;52.050;11.036;2023-09-08T06:34:13;22.30;;;14.30;;
5058;SDS011;2548;52.050;11.036;2023-09-08T06:36:42;16.70;;;13.48;;
5058;SDS011;2548;52.050;11.036;2023-09-08T06:39:09;18.80;;;14.50;;
5058;SDS011;2548;52.050;11.036;2023-09-08T06:41:38;17.77;;;13.13;;
5058;SDS011;2548;52.050;11.036;2023-09-08T06:44:06;18.73;;;15.20;;
5058;SDS011;2548;52.050;11.036;2023-09-08T06:46:34;20.47;;;15.17;;
5058;SDS011;2548;52.050;11.036;2023-09-08T06:49:01;18.33;;;13.10;;
5058;SDS011;2548;52.050;11.036;2023-09-08T06:51:29;17.10;;;14.13;;
5058;SDS011;2548;52.050;11.036;2023-09-08T06:53:59;16.90;;;14.43;;
5058;SDS011;2548;52.050;11.036;2023-09-08T06:56:33;19.30;;;14.47;;
5058;SDS011;2548;52.050;11.036;2023-09-08T06:59:02;27.33;;;15.13;;
5058;SDS011;2548;52.050;11.036;2023-09-08T07:01:30;17.80;;;14.70;;
5058;SDS011;2548;52.050;11.036;2023-09-08T07:03:57;17.70;;;14.67;;
5058;SDS011;2548;52.050;11.036;2023-09-08T07:06:25;23.50;;;15.00;;
5058;SDS011;2548;52.050;11.036;2023-09-08T07:08:53;18.17;;;14.30;;
5058;SDS011;2548;52.050;11.036;2023-09-08T07:11:22;19.27;;;15.10;;
5058;SDS011;2548;52.050;11.036;2023-09-08T07:13:50;17.90;;;15.63;;
5058;SDS011;2548;52.050;11.036;2023-09-08T07:16:17;21.90;;;14.03;;
5058;SDS011;2548;52.050;11.036;2023-09-08T07:18:45;22.70;;;14.60;;
5058;SDS011;2548;52.050;11.036;2023-09-08T07:21:12;17.07;;;14.77;;
5058;SDS011;2548;52.050;11.036;2023-09-08T07:23:40;15.40;;;13.70;;
5058;SDS011;2548;52.050;11.036;2023-09-08T07:26:09;16.33;;;14.20;;
5058;SDS011;2548;52.050;11.036;2023-09-08T07:28:38;20.30;;;13.53;;
5058;SDS011;2548;52.050;11.036;2023-09-08T07:31:09;14.53;;;13.10;;
5058;SDS011;2548;52.050;11.036;2023-09-08T07:33:40;17.37;;;12.97;;
5058;SDS011;2548;52.050;11.036;2023-09-08T07:36:07;17.13;;;13.30;;
5058;SDS011;2548;52.050;11.036;2023-09-08T07:38:37;16.23;;;12.93;;
5058;SDS011;2548;52.050;11.036;2023-09-08T07:41:05;20.70;;;13.30;;
5058;SDS011;2548;52.050;11.036;2023-09-08T07:43:33;16.63;;;13.10;;
5058;SDS011;2548;52.050;11.036;2023-09-08T07:46:08;13.93;;;12.50;;
5058;SDS011;2548;52.050;11.036;2023-09-08T07:48:35;15.30;;;12.10;;
5058;SDS011;2548;52.050;11.036;2023-09-08T07:51:03;23.40;;;14.20;;
5058;SDS011;2548;52.050;11.036;2023-09-08T07:53:30;15.73;;;12.57;;
5058;SDS011;2548;52.050;11.036;2023-09-08T07:55:58;13.20;;;11.80;;
5058;SDS011;2548;52.050;11.036;2023-09-08T07:58:25;14.67;;;13.17;;
5058;SDS011;2548;52.050;11.036;2023-09-08T08:00:53;12.80;;;11.33;;
5058;SDS011;2548;52.050;11.036;2023-09-08T08:03:21;14.07;;;11.33;;
5058;SDS011;2548;52.050;11.036;2023-09-08T08:05:49;18.47;;;12.50;;
5058;SDS011;2548;52.050;11.036;2023-09-08T08:08:16;25.07;;;11.30;;
5058;SDS011;2548;52.050;11.036;2023-09-08T08:10:44;16.60;;;11.50;;
5058;SDS011;2548;52.050;11.036;2023-09-08T08:13:11;12.37;;;10.30;;
5058;SDS011;2548;52.050;11.036;2023-09-08T08:15:39;12.40;;;10.60;;
5058;SDS011;2548;52.050;11.036;2023-09-08T08:18:08;15.33;;;10.93;;
5058;SDS011;2548;52.050;11.036;2023-09-08T08:20:37;22.90;;;13.03;;
5058;SDS011;2548;52.050;11.036;2023-09-08T08:23:05;13.33;;;11.20;;
5058;SDS011;2548;52.050;11.036;2023-09-08T08:25:33;13.10;;;9.83;;
5058;SDS011;2548;52.050;11.036;2023-09-08T08:28:01;12.90;;;11.60;;
5058;SDS011;2548;52.050;11.036;2023-09-08T08:30:29;12.07;;;10.43;;
5058;SDS011;2548;52.050;11.036;2023-09-08T08:33:02;13.07;;;11.60;;
5058;SDS011;2548;52.050;11.036;2023-09-08T08:35:30;14.00;;;9.73;;
5058;SDS011;2548;52.050;11.036;2023-09-08T08:37:59;11.00;;;9.90;;
5058;SDS011;2548;52.050;11.036;2023-09-08T08:40:26;13.33;;;9.80;;
5058;SDS011;2548;52.050;11.036;2023-09-08T08:42:57;15.30;;;9.80;;
5058;SDS011;2548;52.050;11.036;2023-09-08T08:45:26;10.07;;;8.90;;
5058;SDS011;2548;52.050;11.036;2023-09-08T08:48:08;15.40;;;9.57;;
5058;SDS011;2548;52.050;11.036;2023-09-08T08:50:36;18.33;;;10.13;;
5058;SDS011;2548;52.050;11.036;2023-09-08T08:53:07;10.90;;;9.60;;
5058;SDS011;2548;52.050;11.036;2023-09-08T08:55:35;10.47;;;9.37;;
5058;SDS011;2548;52.050;11.036;2023-09-08T08:58:11;13.47;;;10.70;;
5058;SDS011;2548;52.050;11.036;2023-09-08T09:00:40;15.13;;;8.73;;
5058;SDS011;2548;52.050;11.036;2023-09-08T09:03:08;11.00;;;8.83;;
5058;SDS011;2548;52.050;11.036;2023-09-08T09:05:36;10.13;;;9.13;;
5058;SDS011;2548;52.050;11.036;2023-09-08T09:08:05;12.93;;;8.70;;
5058;SDS011;2548;52.050;11.036;2023-09-08T09:10:35;11.43;;;8.90;;
5058;SDS011;2548;52.050;11.036;2023-09-08T09:13:05;12.90;;;9.40;;
5058;SDS011;2548;52.050;11.036;2023-09-08T09:15:36;13.03;;;8.67;;
5058;SDS011;2548;52.050;11.036;2023-09-08T09:18:04;11.90;;;8.80;;
5058;SDS011;2548;52.050;11.036;2023-09-08T09:20:32;9.90;;;8.30;;
5058;SDS011;2548;52.050;11.036;2023-09-08T09:23:00;10.53;;;8.83;;
5058;SDS011;2548;52.050;11.036;2023-09-08T09:25:30;9.27;;;8.43;;
5058;SDS011;2548;52.050;11.036;2023-09-08T09:28:02;11.63;;;7.50;;
5058;SDS011;2548;52.050;11.036;2023-09-08T09:30:46;11.50;;;8.97;;
5058;SDS011;2548;52.050;11.036;2023-09-08T09:33:15;8.47;;;7.63;;
5058;SDS011;2548;52.050;11.036;2023-09-08T09:35:44;12.83;;;8.20;;
5058;SDS011;2548;52.050;11.036;2023-09-08T09:38:12;9.20;;;8.00;;
5058;SDS011;2548;52.050;11.036;2023-09-08T09:40:42;11.30;;;7.73;;
5058;SDS011;2548;52.050;11.036;2023-09-08T09:43:10;8.10;;;6.83;;
5058;SDS011;2548;52.050;11.036;2023-09-08T09:45:41;9.60;;;7.27;;
5058;SDS011;2548;52.050;11.036;2023-09-08T09:48:12;10.43;;;7.60;;
5058;SDS011;2548;52.050;11.036;2023-09-08T09:50:40;9.23;;;7.13;;
5058;SDS011;2548;52.050;11.036;2023-09-08T09:53:09;8.20;;;7.40;;
5058;SDS011;2548;52.050;11.036;2023-09-08T09:55:38;9.67;;;7.30;;
5058;SDS011;2548;52.050;11.036;2023-09-08T09:58:08;10.50;;;8.13;;
5058;SDS011;2548;52.050;11.036;2023-09-08T10:00:37;14.67;;;7.50;;
5058;SDS011;2548;52.050;11.036;2023-09-08T10:03:06;8.80;;;7.40;;
5058;SDS011;2548;52.050;11.036;2023-09-08T10:05:36;9.00;;;8.10;;
5058;SDS011;2548;52.050;11.036;2023-09-08T10:08:07;8.23;;;7.53;;
5058;SDS011;2548;52.050;11.036;2023-09-08T10:10:36;7.67;;;6.90;;
5058;SDS011;2548;52.050;11.036;2023-09-08T10:13:11;11.00;;;7.30;;
5058;SDS011;2548;52.050;11.036;2023-09-08T10:15:43;20.37;;;7.20;;
5058;SDS011;2548;52.050;11.036;2023-09-08T10:18:13;9.10;;;6.37;;
5058;SDS011;2548;52.050;11.036;2023-09-08T10:20:43;12.93;;;7.93;;
5058;SDS011;2548;52.050;11.036;2023-09-08T10:23:12;9.63;;;6.90;;
5058;SDS011;2548;52.050;11.036;2023-09-08T10:25:45;6.23;;;5.63;;
5058;SDS011;2548;52.050;11.036;2023-09-08T10:28:20;7.80;;;6.60;;
5058;SDS011;2548;52.050;11.036;2023-09-08T10:30:49;8.30;;;5.93;;
5058;SDS011;2548;52.050;11.036;2023-09-08T10:33:19;14.67;;;6.10;;
5058;SDS011;2548;52.050;11.036;2023-09-08T10:35:49;11.73;;;6.50;;
5058;SDS011;2548;52.050;11.036;2023-09-08T10:38:21;9.67;;;6.30;;
5058;SDS011;2548;52.050;11.036;2023-09-08T10:40:49;12.13;;;6.63;;
5058;SDS011;2548;52.050;11.036;2023-09-08T10:43:17;7.43;;;6.70;;
5058;SDS011;2548;52.050;11.036;2023-09-08T10:45:47;8.40;;;5.97;;
5058;SDS011;2548;52.050;11.036;2023-09-08T10:48:15;10.13;;;6.10;;
5058;SDS011;2548;52.050;11.036;2023-09-08T10:50:46;10.63;;;6.07;;
5058;SDS011;2548;52.050;11.036;2023-09-08T10:53:14;6.53;;;6.00;;
5058;SDS011;2548;52.050;11.036;2023-09-08T10:55:43;9.47;;;6.20;;
5058;SDS011;2548;52.050;11.036;2023-09-08T10:58:17;7.50;;;6.77;;
5058;SDS011;2548;52.050;11.036;2023-09-08T11:00:50;6.10;;;5.47;;
5058;SDS011;2548;52.050;11.036;2023-09-08T11:03:26;6.20;;;5.60;;
5058;SDS011;2548;52.050;11.036;2023-09-08T11:05:55;9.73;;;7.10;;
5058;SDS011;2548;52.050;11.036;2023-09-08T11:08:24;7.60;;;6.23;;
5058;SDS011;2548;52.050;11.036;2023-09-08T11:10:52;11.80;;;6.00;;
5058;SDS011;2548;52.050;11.036;2023-09-08T11:13:22;7.23;;;5.53;;
5058;SDS011;2548;52.050;11.036;2023-09-08T11:15:52;7.50;;;5.67;;
5058;SDS011;2548;52.050;11.036;2023-09-08T11:18:25;6.30;;;5.80;;
5058;SDS011;2548;52.050;11.036;2023-09-08T11:20:54;10.03;;;6.53;;
5058;SDS011;2548;52.050;11.036;2023-09-08T11:23:23;6.50;;;5.63;;
5058;SDS011;2548;52.050;11.036;2023-09-08T11:25:51;8.00;;;5.60;;
5058;SDS011;2548;52.050;11.036;2023-09-08T11:28:20;12.80;;;6.60;;
5058;SDS011;2548;52.050;11.036;2023-09-08T11:30:49;8.13;;;5.90;;
5058;SDS011;2548;52.050;11.036;2023-09-08T11:33:20;10.23;;;5.87;;
5058;SDS011;2548;52.050;11.036;2023-09-08T11:35:50;6.43;;;5.93;;
5058;SDS011;2548;52.050;11.036;2023-09-08T11:38:24;7.97;;;5.43;;
5058;SDS011;2548;52.050;11.036;2023-09-08T11:40:52;11.60;;;5.93;;
5058;SDS011;2548;52.050;11.036;2023-09-08T11:43:20;6.80;;;6.00;;
5058;SDS011;2548;52.050;11.036;2023-09-08T11:45:48;5.50;;;5.10;;
5058;SDS011;2548;52.050;11.036;2023-09-08T11:48:22;5.43;;;4.90;;
5058;SDS011;2548;52.050;11.036;2023-09-08T11:50:53;5.87;;;5.30;;
5058;SDS011;2548;52.050;11.036;2023-09-08T11:53:21;6.50;;;4.73;;
5058;SDS011;2548;52.050;11.036;2023-09-08T11:55:49;5.07;;;4.70;;
5058;SDS011;2548;52.050;11.036;2023-09-08T11:58:20;6.47;;;5.20;;
5058;SDS011;2548;52.050;11.036;2023-09-08T12:00:49;5.20;;;4.80;;
5058;SDS011;2548;52.050;11.036;2023-09-08T12:03:17;6.43;;;5.40;;
5058;SDS011;2548;52.050;11.036;2023-09-08T12:05:51;7.57;;;5.03;;
5058;SDS011;2548;52.050;11.036;2023-09-08T12:08:19;7.40;;;5.00;;
5058;SDS011;2548;52.050;11.036;2023-09-08T12:10:47;6.70;;;5.30;;
5058;SDS011;2548;52.050;11.036;2023-09-08T12:13:20;7.40;;;5.33;;
5058;SDS011;2548;52.050;11.036;2023-09-08T12:15:49;5.93;;;5.47;;
5058;SDS011;2548;52.050;11.036;2023-09-08T12:18:17;9.50;;;4.67;;
5058;SDS011;2548;52.050;11.036;2023-09-08T12:21:03;7.53;;;5.43;;
5058;SDS011;2548;52.050;11.036;2023-09-08T12:23:31;8.30;;;5.50;;
5058;SDS011;2548;52.050;11.036;2023-09-08T12:25:59;6.60;;;5.90;;
5058;SDS011;2548;52.050;11.036;2023-09-08T12:28:30;8.47;;;5.17;;
5058;SDS011;2548;52.050;11.036;2023-09-08T12:30:58;6.80;;;5.40;;
5058;SDS011;2548;52.050;11.036;2023-09-08T12:33:29;7.77;;;5.10;;
5058;SDS011;2548;52.050;11.036;2023-09-08T12:35:57;6.90;;;5.07;;
5058;SDS011;2548;52.050;11.036;2023-09-08T12:38:30;11.00;;;5.03;;
5058;SDS011;2548;52.050;11.036;2023-09-08T12:40:58;10.63;;;5.60;;
5058;SDS011;2548;52.050;11.036;2023-09-08T12:43:26;10.17;;;5.10;;
5058;SDS011;2548;52.050;11.036;2023-09-08T12:45:54;6.03;;;5.43;;
5058;SDS011;2548;52.050;11.036;2023-09-08T12:48:22;5.40;;;5.00;;
5058;SDS011;2548;52.050;11.036;2023-09-08T12:50:51;4.73;;;4.37;;
5058;SDS011;2548;52.050;11.036;2023-09-08T12:53:18;6.53;;;5.13;;
5058;SDS011;2548;52.050;11.036;2023-09-08T12:55:48;5.47;;;4.97;;
5058;SDS011;2548;52.050;11.036;2023-09-08T12:58:16;4.70;;;4.33;;
5058;SDS011;2548;52.050;11.036;2023-09-08T13:00:44;5.43;;;4.77;;
5058;SDS011;2548;52.050;11.036;2023-09-08T13:03:12;3.90;;;3.70;;
5058;SDS011;2548;52.050;11.036;2023-09-08T13:05:39;5.07;;;4.67;;
5058;SDS011;2548;52.050;11.036;2023-09-08T13:08:11;4.10;;;3.80;;
5058;SDS011;2548;52.050;11.036;2023-09-08T13:10:41;6.17;;;4.10;;
5058;SDS011;2548;52.050;11.036;2023-09-08T13:13:09;6.07;;;4.53;;
5058;SDS011;2548;52.050;11.036;2023-09-08T13:15:37;4.90;;;4.50;;
5058;SDS011;2548;52.050;11.036;2023-09-08T13:18:05;4.13;;;3.83;;
5058;SDS011;2548;52.050;11.036;2023-09-08T13:20:32;4.87;;;4.47;;
5058;SDS011;2548;52.050;11.036;2023-09-08T13:23:03;4.50;;;4.07;;
5058;SDS011;2548;52.050;11.036;2023-09-08T13:25:45;4.43;;;3.93;;
5058;SDS011;2548;52.050;11.036;2023-09-08T13:28:15;5.13;;;4.73;;
5058;SDS011;2548;52.050;11.036;2023-09-08T13:30:43;4.43;;;4.13;;
5058;SDS011;2548;52.050;11.036;2023-09-08T13:33:13;6.17;;;4.40;;
5058;SDS011;2548;52.050;11.036;2023-09-08T13:35:43;5.03;;;4.63;;
5058;SDS011;2548;52.050;11.036;2023-09-08T13:38:11;7.60;;;4.07;;
5058;SDS011;2548;52.050;11.036;2023-09-08T13:40:48;10.00;;;4.80;;
5058;SDS011;2548;52.050;11.036;2023-09-08T13:43:16;14.83;;;5.60;;
5058;SDS011;2548;52.050;11.036;2023-09-08T13:45:43;4.20;;;3.93;;
5058;SDS011;2548;52.050;11.036;2023-09-08T13:48:17;4.80;;;4.50;;
5058;SDS011;2548;52.050;11.036;2023-09-08T13:50:45;6.30;;;4.10;;
5058;SDS011;2548;52.050;11.036;2023-09-08T13:53:15;4.27;;;3.97;;
5058;SDS011;2548;52.050;11.036;2023-09-08T13:55:44;6.83;;;5.17;;
5058;SDS011;2548;52.050;11.036;2023-09-08T13:58:13;5.40;;;4.90;;
5058;SDS011;2548;52.050;11.036;2023-09-08T14:00:41;4.80;;;4.50;;
5058;SDS011;2548;52.050;11.036;2023-09-08T14:03:09;7.00;;;4.30;;
5058;SDS011;2548;52.050;11.036;2023-09-08T14:05:37;7.87;;;4.30;;
5058;SDS011;2548;52.050;11.036;2023-09-08T14:08:07;12.97;;;3.90;;
5058;SDS011;2548;52.050;11.036;2023-09-08T14:10:35;4.53;;;4.17;;
5058;SDS011;2548;52.050;11.036;2023-09-08T14:13:07;4.40;;;4.10;;
5058;SDS011;2548;52.050;11.036;2023-09-08T14:15:35;4.70;;;4.30;;
5058;SDS011;2548;52.050;11.036;2023-09-08T14:18:06;6.10;;;4.20;;
5058;SDS011;2548;52.050;11.036;2023-09-08T14:20:33;4.40;;;4.00;;
5058;SDS011;2548;52.050;11.036;2023-09-08T14:23:01;4.80;;;4.37;;
5058;SDS011;2548;52.050;11.036;2023-09-08T14:25:31;5.13;;;4.20;;
5058;SDS011;2548;52.050;11.036;2023-09-08T14:27:59;5.30;;;3.93;;
5058;SDS011;2548;52.050;11.036;2023-09-08T14:30:30;5.03;;;4.70;;
5058;SDS011;2548;52.050;11.036;2023-09-08T14:32:57;4.40;;;4.00;;
5058;SDS011;2548;52.050;11.036;2023-09-08T14:35:25;4.13;;;3.83;;
5058;SDS011;2548;52.050;11.036;2023-09-08T14:37:53;4.10;;;3.90;;
5058;SDS011;2548;52.050;11.036;2023-09-08T14:40:21;4.67;;;4.27;;
5058;SDS011;2548;52.050;11.036;2023-09-08T14:42:49;3.97;;;3.67;;
5058;SDS011;2548;52.050;11.036;2023-09-08T14:45:20;6.73;;;4.20;;
5058;SDS011;2548;52.050;11.036;2023-09-08T14:47:51;7.20;;;4.30;;
5058;SDS011;2548;52.050;11.036;2023-09-08T14:50:19;8.07;;;4.07;;
5058;SDS011;2548;52.050;11.036;2023-09-08T14:52:47;5.40;;;4.33;;
5058;SDS011;2548;52.050;11.036;2023-09-08T14:55:15;3.93;;;3.63;;
5058;SDS011;2548;52.050;11.036;2023-09-08T14:57:42;5.63;;;4.17;;
5058;SDS011;2548;52.050;11.036;2023-09-08T15:00:10;4.43;;;3.63;;